Time;durP1;ratioP1;P1;durP2;ratioP2;P2;SDS_P1;SDS_P2;PMS_P1;PMS_P2;Temp;Humidity;BMP_temperature;BMP_pressure;BME280_temperature;BME280_humidity;BME280_pressure;Samples;Min_cycle;Max_cycle;Signal;HPM_P1;HPM_P2
2021/12/24 16:08:21;;;;;;;2.55;0.95;;;;;;;7.95;98.13;97752.09;5109732;27;20323;-74
2021/12/24 16:10:46;;;;;;;1.83;1.73;;;;;;;7.94;98.63;97745.25;5089300;28;20070;-74
2021/12/24 16:13:14;;;;;;;2.17;1.80;;;;;;;7.95;99.30;97746.94;5089343;28;20052;-74
2021/12/24 16:15:45;;;;;;;0.95;0.95;;;;;;;7.87;99.79;97744.53;5087930;28;20090;-74
2021/12/24 16:18:11;;;;;;;1.50;1.42;;;;;;;7.95;99.25;97741.78;5088028;28;20016;-77
2021/12/24 16:20:37;;;;;;;0.90;0.90;;;;;;;7.90;99.68;97744.47;5087942;28;20024;-77
2021/12/24 16:23:02;;;;;;;0.93;0.93;;;;;;;7.82;100.00;97741.22;5088023;28;20546;-77
2021/12/24 16:25:27;;;;;;;9.07;1.95;;;;;;;7.76;100.00;97743.09;5087961;28;20059;-79
2021/12/24 16:27:53;;;;;;;3.00;2.13;;;;;;;7.80;100.00;97748.16;5087492;28;20388;-76
2021/12/24 16:30:18;;;;;;;2.20;1.63;;;;;;;7.79;100.00;97746.47;5088875;28;20027;-76
2021/12/24 16:32:46;;;;;;;3.92;1.65;;;;;;;7.76;100.00;97743.94;5091112;28;20543;-76
2021/12/24 16:35:16;;;;;;;1.70;1.60;;;;;;;7.75;100.00;97755.16;5102378;28;20020;-76
2021/12/24 16:37:41;;;;;;;7.57;1.30;;;;;;;7.73;100.00;97752.59;5098844;28;20024;-76
2021/12/24 16:40:10;;;;;;;1.08;1.05;;;;;;;7.65;100.00;97753.69;5109243;28;20020;-76
2021/12/24 16:42:37;;;;;;;1.95;1.85;;;;;;;7.72;100.00;97750.06;5109147;28;20070;-76
2021/12/24 16:45:03;;;;;;;1.98;1.88;;;;;;;7.68;100.00;97749.28;5109210;28;20476;-76
2021/12/24 16:47:28;;;;;;;2.13;1.80;;;;;;;7.66;100.00;97740.75;5108746;28;20522;-77
2021/12/24 16:49:54;;;;;;;3.50;1.27;;;;;;;7.65;100.00;97741.63;5109264;28;20016;-76
2021/12/24 16:52:19;;;;;;;1.95;1.73;;;;;;;7.60;100.00;97742.63;5107834;28;20169;-76
2021/12/24 16:54:45;;;;;;;2.05;1.40;;;;;;;7.61;100.00;97752.03;5109282;28;20035;-76
2021/12/24 16:57:10;;;;;;;5.43;3.58;;;;;;;7.60;100.00;97752.94;5108737;28;20024;-76
2021/12/24 16:59:40;;;;;;;1.25;1.25;;;;;;;7.62;100.00;97748.56;5109049;28;20051;-76
2021/12/24 17:02:07;;;;;;;1.90;1.80;;;;;;;7.62;100.00;97738.25;5096401;28;20026;-76
2021/12/24 17:04:32;;;;;;;3.00;2.70;;;;;;;7.48;100.00;97741.16;5100702;28;20027;-76
2021/12/24 17:06:58;;;;;;;1.77;1.63;;;;;;;7.53;100.00;97741.03;5099219;28;20020;-78
2021/12/24 17:09:23;;;;;;;10.85;5.53;;;;;;;7.47;100.00;97737.72;5093687;28;20180;-76
2021/12/24 17:11:48;;;;;;;7.60;5.65;;;;;;;7.51;100.00;97725.63;5088447;28;20028;-74
2021/12/24 17:14:14;;;;;;;7.82;6.53;;;;;;;7.43;100.00;97723.22;5088245;28;20029;-77
2021/12/24 17:16:39;;;;;;;9.45;5.00;;;;;;;7.53;100.00;97728.16;5088138;28;20017;-77
2021/12/24 17:19:07;;;;;;;4.40;4.05;;;;;;;7.53;100.00;97726.44;5078151;28;20029;-77
2021/12/24 17:21:32;;;;;;;8.05;3.80;;;;;;;7.55;100.00;97721.25;5074839;28;20614;-77
2021/12/24 17:23:57;;;;;;;22.15;5.13;;;;;;;7.61;100.00;97715.94;5074586;28;20028;-76
2021/12/24 17:26:23;;;;;;;2.45;1.73;;;;;;;7.60;100.00;97709.09;5074589;28;20031;-76
2021/12/24 17:28:48;;;;;;;1.02;0.93;;;;;;;7.57;100.00;97714.31;5074478;28;20430;-76
2021/12/24 17:31:16;;;;;;;3.22;2.25;;;;;;;7.54;100.00;97712.66;5071533;28;20029;-76
2021/12/24 17:33:41;;;;;;;1.73;1.42;;;;;;;7.46;100.00;97717.16;5080511;28;20039;-76
2021/12/24 17:36:09;;;;;;;2.20;1.92;;;;;;;7.52;100.00;97716.16;5092907;28;20094;-78
2021/12/24 17:38:35;;;;;;;2.75;2.08;;;;;;;7.55;100.00;97709.22;5086228;28;20362;-73
2021/12/24 17:41:00;;;;;;;1.67;1.58;;;;;;;7.50;100.00;97712.78;5094635;28;20023;-76
2021/12/24 17:43:27;;;;;;;3.95;2.17;;;;;;;7.55;100.00;97706.63;5094583;28;20040;-76
2021/12/24 17:45:53;;;;;;;4.25;1.67;;;;;;;7.57;100.00;97704.00;5094275;28;20023;-75
2021/12/24 17:48:18;;;;;;;1.20;1.10;;;;;;;7.60;100.00;97693.66;5105318;22;20057;-71
2021/12/24 17:50:43;;;;;;;2.78;2.50;;;;;;;7.61;100.00;97690.19;5033257;28;20022;-72
2021/12/24 17:53:09;;;;;;;4.88;1.77;;;;;;;7.67;100.00;97703.75;5033233;28;20033;-72
2021/12/24 17:55:36;;;;;;;1.80;1.70;;;;;;;7.66;100.00;97699.50;5033228;28;20096;-72
2021/12/24 17:58:02;;;;;;;4.18;1.80;;;;;;;7.57;100.00;97698.84;5033189;28;20025;-72
2021/12/24 18:00:28;;;;;;;3.22;2.97;;;;;;;7.48;100.00;97698.19;5033196;28;20021;-72
2021/12/24 18:02:53;;;;;;;1.15;1.15;;;;;;;7.43;100.00;97704.31;5041329;28;20033;-72
2021/12/24 18:05:21;;;;;;;2.05;1.95;;;;;;;7.40;100.00;97707.84;5047788;28;20036;-72
2021/12/24 18:07:47;;;;;;;4.18;1.42;;;;;;;7.36;100.00;97703.63;5045106;28;20056;-72
2021/12/24 18:10:15;;;;;;;1.83;1.75;;;;;;;7.32;100.00;97703.72;5053777;28;20079;-72
2021/12/24 18:12:40;;;;;;;4.07;2.78;;;;;;;7.36;100.00;97706.22;5053983;28;20035;-72
2021/12/24 18:15:08;;;;;;;3.20;1.45;;;;;;;7.41;100.00;97703.53;5053869;28;20111;-70
2021/12/24 18:17:35;;;;;;;2.45;2.22;;;;;;;7.41;100.00;97709.53;5053416;28;20071;-70
2021/12/24 18:20:02;;;;;;;2.42;1.90;;;;;;;7.31;100.00;97713.19;5053647;28;20036;-70
2021/12/24 18:22:28;;;;;;;3.65;1.95;;;;;;;7.35;100.00;97699.38;5053440;28;20470;-70
2021/12/24 18:24:53;;;;;;;1.42;1.42;;;;;;;7.41;100.00;97694.06;5053623;28;20032;-70
2021/12/24 18:27:19;;;;;;;1.80;1.70;;;;;;;7.46;100.00;97689.66;5053139;28;20016;-70
2021/12/24 18:29:44;;;;;;;2.35;1.45;;;;;;;7.78;100.00;97692.34;5052572;28;20029;-71
2021/12/24 18:32:11;;;;;;;1.75;1.65;;;;;;;7.83;100.00;97699.09;5046792;28;20028;-72
2021/12/24 18:34:37;;;;;;;1.90;1.08;;;;;;;7.82;100.00;97694.81;5045071;28;20029;-72
2021/12/24 18:37:02;;;;;;;1.00;1.00;;;;;;;7.87;100.00;97698.13;5049785;28;20117;-72
2021/12/24 18:39:28;;;;;;;1.85;1.75;;;;;;;7.76;100.00;97700.13;5047886;28;20025;-71
2021/12/24 18:41:53;;;;;;;1.10;1.00;;;;;;;7.98;100.00;97700.44;5053218;28;20108;-71
2021/12/24 18:44:18;;;;;;;1.90;1.80;;;;;;;7.86;100.00;97701.59;5053328;28;20021;-71
2021/12/24 18:46:44;;;;;;;2.47;1.42;;;;;;;7.87;100.00;97698.13;5052910;28;20021;-71
2021/12/24 18:49:10;;;;;;;2.65;1.95;;;;;;;7.91;100.00;97697.16;5053011;28;20039;-71
2021/12/24 18:51:36;;;;;;;1.77;1.67;;;;;;;7.93;100.00;97700.56;5052961;28;20452;-71
2021/12/24 18:54:02;;;;;;;1.58;1.30;;;;;;;7.99;100.00;97702.97;5052891;28;20116;-71
2021/12/24 18:56:28;;;;;;;1.65;1.58;;;;;;;7.94;100.00;97707.41;5052763;28;20049;-71
2021/12/24 18:58:53;;;;;;;1.95;1.50;;;;;;;7.92;100.00;97710.91;5052742;28;20469;-71
2021/12/24 19:01:20;;;;;;;2.15;1.67;;;;;;;7.83;100.00;97704.25;5049261;28;20075;-71
2021/12/24 19:03:48;;;;;;;8.35;2.55;;;;;;;7.69;100.00;97704.59;5041597;28;20108;-71
2021/12/24 19:06:13;;;;;;;1.33;0.88;;;;;;;7.75;100.00;97703.59;5052422;28;20024;-72
2021/12/24 19:08:40;;;;;;;2.10;1.73;;;;;;;7.83;100.00;97706.84;5044229;28;20033;-72
2021/12/24 19:11:05;;;;;;;4.75;2.42;;;;;;;7.84;100.00;97703.38;5052712;28;20032;-72
2021/12/24 19:13:30;;;;;;;3.15;1.90;;;;;;;7.79;100.00;97705.22;5052554;28;20025;-71
2021/12/24 19:15:56;;;;;;;2.85;2.10;;;;;;;7.84;100.00;97703.38;5052419;28;20033;-71
2021/12/24 19:18:21;;;;;;;4.05;2.50;;;;;;;7.90;100.00;97708.38;5052389;28;20021;-71
2021/12/24 19:20:47;;;;;;;6.85;4.05;;;;;;;7.79;100.00;97710.38;5052502;28;20017;-71
2021/12/24 19:23:12;;;;;;;3.30;2.38;;;;;;;7.81;100.00;97713.75;5052597;28;20397;-71
2021/12/24 19:25:38;;;;;;;6.22;1.98;;;;;;;7.79;100.00;97717.25;5052337;28;20024;-71
2021/12/24 19:28:04;;;;;;;3.58;2.28;;;;;;;7.97;100.00;97715.06;5052238;28;20021;-71
2021/12/24 19:30:30;;;;;;;2.28;2.17;;;;;;;8.03;100.00;97718.41;5052210;28;20470;-71
2021/12/24 19:32:58;;;;;;;2.15;1.95;;;;;;;8.03;100.00;97715.81;5043455;28;20116;-71
2021/12/24 19:35:24;;;;;;;2.92;1.52;;;;;;;7.84;100.00;97718.00;5046594;28;20028;-71
2021/12/24 19:37:50;;;;;;;1.90;1.75;;;;;;;7.88;100.00;97720.47;5043573;28;20022;-71
2021/12/24 19:40:16;;;;;;;0.73;0.73;;;;;;;7.84;100.00;97708.53;5052123;28;20060;-71
2021/12/24 19:42:42;;;;;;;1.23;1.17;;;;;;;7.80;100.00;97706.06;5052092;28;20112;-71
2021/12/24 19:45:08;;;;;;;4.47;2.33;;;;;;;7.91;100.00;97712.63;5052185;28;20496;-72
2021/12/24 19:47:34;;;;;;;5.82;2.38;;;;;;;7.94;100.00;97706.56;5051750;28;20469;-74
2021/12/24 19:50:00;;;;;;;1.52;1.15;;;;;;;7.88;100.00;97710.16;5052105;28;20525;-72
2021/12/24 19:52:26;;;;;;;2.10;1.90;;;;;;;7.72;100.00;97708.81;5052071;28;20025;-70
2021/12/24 19:54:51;;;;;;;1.23;1.15;;;;;;;7.83;100.00;97706.84;5052122;28;20032;-70
2021/12/24 19:57:17;;;;;;;2.42;0.80;;;;;;;7.76;100.00;97705.28;5051936;28;20024;-70
2021/12/24 19:59:43;;;;;;;6.65;2.05;;;;;;;7.92;100.00;97706.59;5051789;28;20128;-69
2021/12/24 20:02:08;;;;;;;3.38;1.08;;;;;;;7.86;100.00;97711.91;5045243;28;20021;-69
2021/12/24 20:04:34;;;;;;;2.75;1.92;;;;;;;7.87;100.00;97718.75;5043564;28;20028;-70
2021/12/24 20:06:59;;;;;;;1.73;1.63;;;;;;;8.03;100.00;97713.25;5048930;28;20024;-71
2021/12/24 20:09:25;;;;;;;5.97;2.78;;;;;;;7.98;100.00;97716.78;5046220;28;20532;-71
2021/12/24 20:11:50;;;;;;;4.05;1.48;;;;;;;7.88;100.00;97715.31;5051862;28;20052;-71
2021/12/24 20:14:15;;;;;;;0.85;0.85;;;;;;;7.88;100.00;97722.16;5051892;28;20111;-71
2021/12/24 20:16:47;;;;;;;4.40;1.60;;;;;;;7.84;100.00;97708.53;5051569;28;20116;-71
2021/12/24 20:19:14;;;;;;;1.00;1.00;;;;;;;7.79;100.00;97714.69;5051768;28;20102;-71
2021/12/24 20:21:40;;;;;;;1.17;1.00;;;;;;;7.70;100.00;97710.59;5051694;28;20087;-71
2021/12/24 20:24:06;;;;;;;0.93;0.88;;;;;;;7.61;100.00;97715.94;5051846;28;20024;-71
2021/12/24 20:26:32;;;;;;;0.60;0.60;;;;;;;7.58;100.00;97722.00;5051699;28;20104;-69
2021/12/24 20:28:57;;;;;;;0.90;0.90;;;;;;;7.55;100.00;97726.41;5051663;28;20025;-68
2021/12/24 20:31:23;;;;;;;1.13;1.10;;;;;;;7.51;100.00;97719.63;5047409;28;20028;-68
2021/12/24 20:33:49;;;;;;;0.70;0.70;;;;;;;7.48;100.00;97721.38;5040877;28;20036;-69
2021/12/24 20:36:14;;;;;;;2.10;1.88;;;;;;;7.50;100.00;97728.25;5051505;28;20405;-68
2021/12/24 20:38:39;;;;;;;1.48;1.35;;;;;;;7.46;100.00;97723.16;5043111;28;20021;-68
2021/12/24 20:41:06;;;;;;;3.95;2.38;;;;;;;7.46;100.00;97719.72;5051602;28;20155;-68
2021/12/24 20:43:31;;;;;;;3.25;2.42;;;;;;;7.51;100.00;97724.78;5051423;28;20021;-68
2021/12/24 20:45:57;;;;;;;2.00;1.13;;;;;;;7.50;100.00;97728.25;5051302;28;20090;-69
2021/12/24 20:48:22;;;;;;;4.25;2.72;;;;;;;7.46;100.00;97723.16;5051251;28;20466;-72
2021/12/24 20:50:47;;;;;;;2.45;1.33;;;;;;;7.44;100.00;97724.91;5051683;28;20039;-72
2021/12/24 20:53:13;;;;;;;4.82;2.28;;;;;;;7.46;100.00;97720.56;5052043;28;20392;-69
2021/12/24 20:55:40;;;;;;;2.45;1.92;;;;;;;7.41;100.00;97714.69;5055293;28;20029;-70
2021/12/24 20:58:06;;;;;;;5.65;3.17;;;;;;;7.39;100.00;97721.56;5055155;28;20048;-68
2021/12/24 21:00:33;;;;;;;4.90;2.00;;;;;;;7.38;100.00;97725.03;5055136;28;20037;-68
2021/12/24 21:02:59;;;;;;;1.67;1.45;;;;;;;7.39;100.00;97721.56;5045636;28;20057;-70
2021/12/24 21:05:25;;;;;;;1.92;1.83;;;;;;;7.40;100.00;97725.88;5048098;28;20059;-70
2021/12/24 21:07:51;;;;;;;5.07;2.90;;;;;;;7.40;100.00;97720.72;5046115;28;20021;-70
2021/12/24 21:10:18;;;;;;;1.95;1.42;;;;;;;7.36;100.00;97726.81;5055050;28;20398;-71
2021/12/24 21:12:44;;;;;;;2.85;2.35;;;;;;;7.25;100.00;97723.59;5054884;28;20104;-70
2021/12/24 21:15:11;;;;;;;2.42;2.30;;;;;;;7.33;100.00;97716.56;5054873;28;20139;-70
2021/12/24 21:17:37;;;;;;;4.38;3.25;;;;;;;7.28;100.00;97718.41;5054651;28;20060;-70
2021/12/24 21:20:05;;;;;;;7.45;2.67;;;;;;;7.32;100.00;97714.88;5054740;28;20029;-74
2021/12/24 21:22:30;;;;;;;2.88;2.65;;;;;;;7.35;100.00;97719.97;5054593;28;20116;-70
2021/12/24 21:24:56;;;;;;;1.80;1.70;;;;;;;7.40;100.00;97718.16;5054742;28;20063;-70
2021/12/24 21:27:23;;;;;;;1.48;1.35;;;;;;;7.43;100.00;97712.91;5054402;28;20020;-70
2021/12/24 21:29:48;;;;;;;5.13;2.20;;;;;;;7.45;100.00;97716.31;5054525;28;20060;-70
2021/12/24 21:32:14;;;;;;;1.95;1.85;;;;;;;7.47;100.00;97704.22;5047893;28;20060;-74
2021/12/24 21:34:39;;;;;;;12.20;2.00;;;;;;;7.44;100.00;97696.56;5046054;28;20086;-74
2021/12/24 21:37:05;;;;;;;7.90;2.83;;;;;;;7.42;100.00;97690.59;5050956;28;20527;-72
2021/12/24 21:39:30;;;;;;;2.42;2.22;;;;;;;7.41;100.00;97688.91;5049523;28;20500;-71
2021/12/24 21:41:59;;;;;;;6.30;3.55;;;;;;;7.47;100.00;97688.75;5054453;28;20025;-74
2021/12/24 21:44:24;;;;;;;2.13;1.55;;;;;;;7.52;100.00;97690.38;5054203;28;20534;-70
2021/12/24 21:46:49;;;;;;;2.72;2.40;;;;;;;7.51;100.00;97679.22;5054311;28;20025;-74
2021/12/24 21:49:15;;;;;;;2.95;2.63;;;;;;;7.52;100.00;97685.22;5054075;28;20029;-71
2021/12/24 21:51:40;;;;;;;7.60;2.03;;;;;;;7.39;100.00;97685.50;5054212;28;20025;-71
2021/12/24 21:54:06;;;;;;;4.93;2.67;;;;;;;7.31;100.00;97687.44;5054234;28;20386;-71
2021/12/24 21:56:31;;;;;;;6.70;3.95;;;;;;;7.28;100.00;97687.50;5054032;28;20036;-71
2021/12/24 21:58:56;;;;;;;3.08;2.78;;;;;;;7.24;100.00;97691.00;5053974;28;20070;-71
2021/12/24 22:01:22;;;;;;;4.47;3.50;;;;;;;7.31;100.00;97684.00;5049943;28;20033;-71
2021/12/24 22:08:58;;;;;;;3.22;2.58;;;;;;;7.25;100.00;97682.38;5045489;28;20061;-74
2021/12/24 22:11:33;;;;;;;3.20;1.80;;;;;;;7.23;100.00;97689.31;5053703;28;20032;-74
2021/12/24 22:14:06;;;;;;;4.13;2.05;;;;;;;7.25;100.00;97684.97;5054093;28;20029;-74
2021/12/24 22:16:32;;;;;;;3.53;1.80;;;;;;;7.31;100.00;97684.84;5053681;28;20028;-71
2021/12/24 22:18:57;;;;;;;5.22;2.40;;;;;;;7.34;100.00;97687.34;5053643;28;20393;-71
2021/12/24 22:21:30;;;;;;;2.85;2.17;;;;;;;7.32;100.00;97694.28;5053550;28;20493;-70
2021/12/24 22:23:55;;;;;;;2.63;2.42;;;;;;;7.34;100.00;97697.66;5053606;28;20500;-70
2021/12/24 22:26:20;;;;;;;2.15;2.05;;;;;;;7.33;100.00;97695.97;5053203;28;20025;-70
2021/12/24 22:28:49;;;;;;;2.67;1.95;;;;;;;7.31;100.00;97707.19;5053405;28;20033;-74
2021/12/24 22:31:14;;;;;;;3.63;2.33;;;;;;;7.07;100.00;97703.44;5050347;28;20548;-72
2021/12/24 22:33:39;;;;;;;2.53;2.30;;;;;;;7.03;100.00;97701.78;5041710;28;20029;-71
2021/12/24 22:36:05;;;;;;;2.72;2.00;;;;;;;7.00;100.00;97699.28;5052934;28;20017;-73
2021/12/24 22:38:31;;;;;;;2.60;2.40;;;;;;;7.05;100.00;97700.84;5044821;28;20083;-74
2021/12/24 22:40:56;;;;;;;3.92;2.40;;;;;;;7.06;100.00;97691.41;5053274;28;20542;-70
2021/12/24 22:43:23;;;;;;;2.20;2.10;;;;;;;7.14;100.00;97690.38;5053335;28;20032;-70
2021/12/24 22:45:48;;;;;;;1.88;1.77;;;;;;;7.15;100.00;97691.22;5053003;28;20029;-70
2021/12/24 22:48:15;;;;;;;2.35;2.15;;;;;;;7.13;100.00;97692.97;5052799;28;20504;-71
2021/12/24 22:50:43;;;;;;;2.15;1.95;;;;;;;7.21;100.00;97696.25;5053139;28;20035;-70
2021/12/24 22:53:10;;;;;;;1.83;1.38;;;;;;;7.23;100.00;97699.63;5053019;28;20478;-70
2021/12/24 22:55:35;;;;;;;4.43;2.65;;;;;;;7.16;100.00;97698.06;5052963;28;20033;-74
2021/12/24 22:58:07;;;;;;;2.88;2.65;;;;;;;7.19;100.00;97692.84;5052578;28;20025;-74
2021/12/24 23:00:42;;;;;;;2.72;1.92;;;;;;;7.12;100.00;97691.28;5053035;28;20047;-70
2021/12/24 23:03:09;;;;;;;0.95;0.95;;;;;;;7.13;100.00;97695.56;5042260;28;20028;-73
2021/12/24 23:05:35;;;;;;;0.98;0.98;;;;;;;7.10;100.00;97688.72;5048328;28;20382;-71
2021/12/24 23:08:00;;;;;;;1.60;1.42;;;;;;;7.20;100.00;97691.94;5044016;28;20029;-71
2021/12/24 23:10:25;;;;;;;2.88;2.28;;;;;;;7.21;100.00;97694.50;5052793;28;20025;-72
2021/12/24 23:12:51;;;;;;;1.75;1.40;;;;;;;7.33;100.00;97695.97;5052460;28;20029;-71
2021/12/24 23:15:16;;;;;;;7.35;2.92;;;;;;;7.41;100.00;97699.22;5052580;28;20063;-71
2021/12/24 23:17:44;;;;;;;4.15;3.78;;;;;;;7.30;100.00;97690.91;5051277;28;20017;-70
2021/12/24 23:20:16;;;;;;;2.65;1.77;;;;;;;7.21;100.00;97694.50;5052060;28;20041;-70
2021/12/24 23:22:42;;;;;;;3.55;2.55;;;;;;;7.09;100.00;97693.94;5051186;28;20071;-70
2021/12/24 23:25:08;;;;;;;1.83;1.45;;;;;;;7.07;100.00;97699.13;5052466;28;20063;-70
2021/12/24 23:27:34;;;;;;;3.10;2.90;;;;;;;7.09;100.00;97694.78;5052267;28;20028;-70
2021/12/24 23:30:00;;;;;;;2.83;2.38;;;;;;;7.12;100.00;97696.44;5052297;28;20033;-73
2021/12/24 23:32:26;;;;;;;2.72;2.17;;;;;;;7.15;100.00;97691.22;5045423;28;20025;-73
2021/12/24 23:34:51;;;;;;;1.67;1.58;;;;;;;7.13;100.00;97692.97;5043657;28;20025;-73
2021/12/24 23:37:17;;;;;;;6.43;2.92;;;;;;;7.27;100.00;97690.94;5047028;28;20543;-73
2021/12/24 23:39:42;;;;;;;3.47;2.72;;;;;;;7.07;100.00;97687.97;5048570;28;20028;-73
2021/12/24 23:42:10;;;;;;;3.03;2.70;;;;;;;7.00;100.00;97692.38;5052510;28;20029;-73
2021/12/24 23:44:39;;;;;;;1.83;1.70;;;;;;;6.98;100.00;97680.44;5052185;28;20051;-71
2021/12/24 23:47:17;;;;;;;2.45;1.55;;;;;;;7.04;100.00;97672.56;5051912;28;20021;-72
2021/12/24 23:49:43;;;;;;;1.38;1.27;;;;;;;7.08;100.00;97676.78;5051774;28;20512;-70
2021/12/24 23:52:10;;;;;;;3.22;1.80;;;;;;;7.08;100.00;97679.34;5052255;28;20107;-71
2021/12/24 23:54:36;;;;;;;1.42;1.38;;;;;;;7.10;100.00;97680.16;5052100;28;20027;-73
2021/12/24 23:57:01;;;;;;;1.92;1.83;;;;;;;7.07;100.00;97681.09;5051758;28;20436;-71
2021/12/24 23:59:27;;;;;;;1.98;1.80;;;;;;;7.09;100.00;97678.47;5051932;28;20032;-71
